sensor_id;sensor_type;location;lat;lon;timestamp;pressure;altitude;pressure_sealevel;temperature;humidity
15932;BME280;8065;49.520;11.284;2023-06-19T00:01:36;97102.25;;;23.65;54.75
15932;BME280;8065;49.520;11.284;2023-06-19T00:04:03;97097.06;;;23.74;54.15
15932;BME280;8065;49.520;11.284;2023-06-19T00:06:30;97100.06;;;23.80;54.20
15932;BME280;8065;49.520;11.284;2023-06-19T00:08:57;97096.16;;;23.81;54.04
15932;BME280;8065;49.520;11.284;2023-06-19T00:11:24;97102.28;;;23.85;53.93
15932;BME280;8065;49.520;11.284;2023-06-19T00:13:50;97095.97;;;23.92;53.71
15932;BME280;8065;49.520;11.284;2023-06-19T00:16:17;97090.13;;;23.93;53.54
15932;BME280;8065;49.520;11.284;2023-06-19T00:18:44;97093.75;;;23.86;53.68
15932;BME280;8065;49.520;11.284;2023-06-19T00:21:11;97093.75;;;23.86;53.54
15932;BME280;8065;49.520;11.284;2023-06-19T00:23:37;97092.56;;;23.88;53.66
15932;BME280;8065;49.520;11.284;2023-06-19T00:26:05;97089.97;;;23.80;54.07
15932;BME280;8065;49.520;11.284;2023-06-19T00:28:32;97084.28;;;23.95;53.74
15932;BME280;8065;49.520;11.284;2023-06-19T00:30:58;97084.06;;;23.85;53.83
15932;BME280;8065;49.520;11.284;2023-06-19T00:33:24;97089.44;;;23.89;53.93
15932;BME280;8065;49.520;11.284;2023-06-19T00:35:51;97084.34;;;23.91;53.59
15932;BME280;8065;49.520;11.284;2023-06-19T00:38:19;97086.53;;;24.00;53.49
15932;BME280;8065;49.520;11.284;2023-06-19T00:40:46;97090.91;;;23.94;53.23
15932;BME280;8065;49.520;11.284;2023-06-19T00:43:13;97087.41;;;23.93;53.75
15932;BME280;8065;49.520;11.284;2023-06-19T00:45:40;97093.25;;;23.92;53.47
15932;BME280;8065;49.520;11.284;2023-06-19T00:48:07;97089.38;;;23.69;53.90
15932;BME280;8065;49.520;11.284;2023-06-19T00:50:34;97088.09;;;23.54;53.99
15932;BME280;8065;49.520;11.284;2023-06-19T00:53:02;97092.75;;;23.53;53.94
15932;BME280;8065;49.520;11.284;2023-06-19T00:55:30;97091.06;;;23.36;54.53
15932;BME280;8065;49.520;11.284;2023-06-19T00:57:59;97084.16;;;23.32;54.58
15932;BME280;8065;49.520;11.284;2023-06-19T01:00:28;97084.63;;;23.27;54.34
15932;BME280;8065;49.520;11.284;2023-06-19T01:02:54;97084.47;;;23.37;54.22
15932;BME280;8065;49.520;11.284;2023-06-19T01:05:21;97093.75;;;23.40;54.44
15932;BME280;8065;49.520;11.284;2023-06-19T01:07:52;97089.00;;;23.44;54.11
15932;BME280;8065;49.520;11.284;2023-06-19T01:10:26;97083.16;;;23.45;54.28
15932;BME280;8065;49.520;11.284;2023-06-19T01:12:56;97090.88;;;23.47;55.25
15932;BME280;8065;49.520;11.284;2023-06-19T01:15:25;97086.63;;;23.46;54.63
15932;BME280;8065;49.520;11.284;2023-06-19T01:17:54;97089.81;;;23.41;54.74
15932;BME280;8065;49.520;11.284;2023-06-19T01:20:21;97089.50;;;23.39;53.92
15932;BME280;8065;49.520;11.284;2023-06-19T01:22:49;97092.78;;;23.50;54.05
15932;BME280;8065;49.520;11.284;2023-06-19T01:25:15;97096.72;;;23.45;53.92
15932;BME280;8065;49.520;11.284;2023-06-19T01:27:42;97096.78;;;23.42;54.31
15932;BME280;8065;49.520;11.284;2023-06-19T01:30:10;97095.41;;;23.57;54.16
15932;BME280;8065;49.520;11.284;2023-06-19T01:32:44;97092.69;;;23.57;54.06
15932;BME280;8065;49.520;11.284;2023-06-19T01:35:15;97099.66;;;23.58;54.15
15932;BME280;8065;49.520;11.284;2023-06-19T01:37:44;97087.25;;;23.57;54.68
15932;BME280;8065;49.520;11.284;2023-06-19T01:40:14;97088.78;;;23.58;53.92
15932;BME280;8065;49.520;11.284;2023-06-19T01:42:41;97090.41;;;23.52;54.28
15932;BME280;8065;49.520;11.284;2023-06-19T01:45:08;97089.00;;;23.44;54.73
15932;BME280;8065;49.520;11.284;2023-06-19T01:47:35;97092.88;;;23.43;54.67
15932;BME280;8065;49.520;11.284;2023-06-19T01:50:02;97086.56;;;23.49;53.95
15932;BME280;8065;49.520;11.284;2023-06-19T01:52:29;97093.50;;;23.54;53.84
15932;BME280;8065;49.520;11.284;2023-06-19T01:54:56;97086.84;;;23.59;54.12
15932;BME280;8065;49.520;11.284;2023-06-19T01:57:23;97085.59;;;23.63;53.94
15932;BME280;8065;49.520;11.284;2023-06-19T01:59:51;97086.38;;;23.64;54.04
15932;BME280;8065;49.520;11.284;2023-06-19T02:02:17;97092.56;;;23.64;54.00
15932;BME280;8065;49.520;11.284;2023-06-19T02:04:44;97092.91;;;23.66;53.59
15932;BME280;8065;49.520;11.284;2023-06-19T02:07:10;97092.63;;;23.61;53.62
15932;BME280;8065;49.520;11.284;2023-06-19T02:09:37;97092.75;;;23.53;53.61
15932;BME280;8065;49.520;11.284;2023-06-19T02:12:05;97092.34;;;23.55;53.73
15932;BME280;8065;49.520;11.284;2023-06-19T02:14:32;97091.25;;;23.49;53.59
15932;BME280;8065;49.520;11.284;2023-06-19T02:16:59;97098.31;;;23.43;54.31
15932;BME280;8065;49.520;11.284;2023-06-19T02:19:25;97092.53;;;23.41;54.21
15932;BME280;8065;49.520;11.284;2023-06-19T02:21:52;97092.41;;;23.25;54.18
15932;BME280;8065;49.520;11.284;2023-06-19T02:24:18;97094.66;;;23.30;53.98
15932;BME280;8065;49.520;11.284;2023-06-19T02:26:45;97089.34;;;23.23;54.36
15932;BME280;8065;49.520;11.284;2023-06-19T02:29:11;97103.97;;;23.29;54.00
15932;BME280;8065;49.520;11.284;2023-06-19T02:31:39;97102.97;;;23.19;53.96
15932;BME280;8065;49.520;11.284;2023-06-19T02:34:05;97098.31;;;23.19;53.84
15932;BME280;8065;49.520;11.284;2023-06-19T02:36:32;97101.94;;;23.09;54.25
15932;BME280;8065;49.520;11.284;2023-06-19T02:38:58;97098.97;;;23.00;54.39
15932;BME280;8065;49.520;11.284;2023-06-19T02:41:25;97104.56;;;22.86;55.13
15932;BME280;8065;49.520;11.284;2023-06-19T02:43:51;97102.31;;;22.81;55.63
15932;BME280;8065;49.520;11.284;2023-06-19T02:46:18;97104.44;;;22.97;55.02
15932;BME280;8065;49.520;11.284;2023-06-19T02:48:45;97110.13;;;23.06;55.15
15932;BME280;8065;49.520;11.284;2023-06-19T02:51:12;97112.69;;;23.16;55.48
15932;BME280;8065;49.520;11.284;2023-06-19T02:53:38;97115.19;;;23.04;54.96
15932;BME280;8065;49.520;11.284;2023-06-19T02:56:06;97109.03;;;23.00;55.65
15932;BME280;8065;49.520;11.284;2023-06-19T02:58:33;97109.72;;;23.07;55.24
15932;BME280;8065;49.520;11.284;2023-06-19T03:01:03;97102.75;;;23.06;55.20
15932;BME280;8065;49.520;11.284;2023-06-19T03:03:32;97110.47;;;23.08;55.26
15932;BME280;8065;49.520;11.284;2023-06-19T03:06:04;97105.81;;;23.08;55.50
15932;BME280;8065;49.520;11.284;2023-06-19T03:08:30;97107.47;;;23.02;55.89
15932;BME280;8065;49.520;11.284;2023-06-19T03:10:57;97112.63;;;22.93;56.55
15932;BME280;8065;49.520;11.284;2023-06-19T03:13:23;97119.31;;;22.85;56.91
15932;BME280;8065;49.520;11.284;2023-06-19T03:15:50;97114.97;;;22.91;56.47
15932;BME280;8065;49.520;11.284;2023-06-19T03:18:16;97117.53;;;23.02;56.17
15932;BME280;8065;49.520;11.284;2023-06-19T03:20:42;97117.84;;;23.07;55.73
15932;BME280;8065;49.520;11.284;2023-06-19T03:23:10;97130.31;;;23.01;55.48
15932;BME280;8065;49.520;11.284;2023-06-19T03:25:37;97115.13;;;23.07;55.19
15932;BME280;8065;49.520;11.284;2023-06-19T03:28:07;97114.41;;;23.03;55.36
15932;BME280;8065;49.520;11.284;2023-06-19T03:30:34;97121.97;;;23.15;55.16
15932;BME280;8065;49.520;11.284;2023-06-19T03:33:00;97122.25;;;23.25;55.06
15932;BME280;8065;49.520;11.284;2023-06-19T03:35:27;97128.47;;;23.21;54.98
15932;BME280;8065;49.520;11.284;2023-06-19T03:37:53;97125.38;;;23.23;55.10
15932;BME280;8065;49.520;11.284;2023-06-19T03:40:21;97140.41;;;23.28;54.91
15932;BME280;8065;49.520;11.284;2023-06-19T03:42:48;97150.78;;;23.33;54.94
15932;BME280;8065;49.520;11.284;2023-06-19T03:45:14;97150.34;;;23.38;54.74
15932;BME280;8065;49.520;11.284;2023-06-19T03:47:41;97148.38;;;23.38;54.95
15932;BME280;8065;49.520;11.284;2023-06-19T03:50:08;97145.59;;;23.42;54.90
15932;BME280;8065;49.520;11.284;2023-06-19T03:52:35;97160.22;;;23.48;54.91
15932;BME280;8065;49.520;11.284;2023-06-19T03:55:01;97165.28;;;23.46;54.15
15932;BME280;8065;49.520;11.284;2023-06-19T03:57:29;97168.66;;;23.57;53.67
15932;BME280;8065;49.520;11.284;2023-06-19T03:59:56;97165.06;;;23.64;52.82
15932;BME280;8065;49.520;11.284;2023-06-19T04:02:22;97170.84;;;23.66;53.40
15932;BME280;8065;49.520;11.284;2023-06-19T04:04:49;97182.00;;;23.71;53.54
15932;BME280;8065;49.520;11.284;2023-06-19T04:07:15;97174.31;;;23.66;53.73
15932;BME280;8065;49.520;11.284;2023-06-19T04:09:43;97187.88;;;23.66;53.96
15932;BME280;8065;49.520;11.284;2023-06-19T04:12:09;97192.38;;;23.76;54.08
15932;BME280;8065;49.520;11.284;2023-06-19T04:14:37;97199.47;;;23.70;53.46
15932;BME280;8065;49.520;11.284;2023-06-19T04:17:04;97187.78;;;23.73;53.64
15932;BME280;8065;49.520;11.284;2023-06-19T04:19:31;97195.00;;;23.83;53.84
15932;BME280;8065;49.520;11.284;2023-06-19T04:21:57;97194.81;;;23.94;53.56
15932;BME280;8065;49.520;11.284;2023-06-19T04:24:23;97196.81;;;23.67;56.60
15932;BME280;8065;49.520;11.284;2023-06-19T04:26:50;97194.75;;;23.74;56.27
15932;BME280;8065;49.520;11.284;2023-06-19T04:29:16;97206.91;;;23.90;56.12
15932;BME280;8065;49.520;11.284;2023-06-19T04:31:44;97188.97;;;23.96;56.67
15932;BME280;8065;49.520;11.284;2023-06-19T04:34:12;97197.13;;;23.96;57.98
15932;BME280;8065;49.520;11.284;2023-06-19T04:36:39;97195.13;;;24.00;58.04
15932;BME280;8065;49.520;11.284;2023-06-19T04:39:06;97198.66;;;23.97;57.21
15932;BME280;8065;49.520;11.284;2023-06-19T04:41:32;97195.34;;;23.85;57.09
15932;BME280;8065;49.520;11.284;2023-06-19T04:43:59;97198.63;;;23.73;55.09
15932;BME280;8065;49.520;11.284;2023-06-19T04:46:25;97197.25;;;23.62;55.41
15932;BME280;8065;49.520;11.284;2023-06-19T04:48:53;97205.41;;;23.62;55.87
15932;BME280;8065;49.520;11.284;2023-06-19T04:51:20;97191.28;;;23.43;56.67
15932;BME280;8065;49.520;11.284;2023-06-19T04:53:47;97204.56;;;23.38;57.02
15932;BME280;8065;49.520;11.284;2023-06-19T04:56:14;97202.69;;;23.35;57.42
15932;BME280;8065;49.520;11.284;2023-06-19T04:58:40;97211.19;;;23.37;57.50
15932;BME280;8065;49.520;11.284;2023-06-19T05:01:11;97204.00;;;23.50;57.28
15932;BME280;8065;49.520;11.284;2023-06-19T05:03:37;97211.59;;;23.62;56.67
15932;BME280;8065;49.520;11.284;2023-06-19T05:06:05;97210.31;;;23.70;56.84
15932;BME280;8065;49.520;11.284;2023-06-19T05:08:32;97207.97;;;23.72;56.58
15932;BME280;8065;49.520;11.284;2023-06-19T05:10:58;97210.81;;;23.89;56.42
15932;BME280;8065;49.520;11.284;2023-06-19T05:13:25;97209.16;;;23.95;56.08
15932;BME280;8065;49.520;11.284;2023-06-19T05:15:51;97205.16;;;24.03;56.40
15932;BME280;8065;49.520;11.284;2023-06-19T05:18:18;97200.91;;;24.02;56.29
15932;BME280;8065;49.520;11.284;2023-06-19T05:20:44;97213.66;;;24.05;56.29
15932;BME280;8065;49.520;11.284;2023-06-19T05:23:12;97204.22;;;24.13;56.79
15932;BME280;8065;49.520;11.284;2023-06-19T05:25:39;97212.94;;;24.24;57.04
15932;BME280;8065;49.520;11.284;2023-06-19T05:28:05;97208.69;;;24.23;57.08
15932;BME280;8065;49.520;11.284;2023-06-19T05:30:32;97204.03;;;24.24;56.88
15932;BME280;8065;49.520;11.284;2023-06-19T05:33:00;97209.84;;;24.45;56.36
15932;BME280;8065;49.520;11.284;2023-06-19T05:35:26;97205.00;;;24.57;56.65
15932;BME280;8065;49.520;11.284;2023-06-19T05:37:53;97216.69;;;24.54;56.76
15932;BME280;8065;49.520;11.284;2023-06-19T05:40:20;97214.69;;;24.77;55.72
15932;BME280;8065;49.520;11.284;2023-06-19T05:42:47;97221.59;;;24.82;55.70
15932;BME280;8065;49.520;11.284;2023-06-19T05:45:13;97228.84;;;24.89;55.16
15932;BME280;8065;49.520;11.284;2023-06-19T05:47:40;97222.69;;;25.08;55.36
15932;BME280;8065;49.520;11.284;2023-06-19T05:50:07;97226.19;;;25.25;55.34
15932;BME280;8065;49.520;11.284;2023-06-19T05:52:33;97229.78;;;25.38;55.14
15932;BME280;8065;49.520;11.284;2023-06-19T05:55:00;97233.66;;;25.57;54.66
15932;BME280;8065;49.520;11.284;2023-06-19T05:57:28;97228.28;;;25.73;54.18
15932;BME280;8065;49.520;11.284;2023-06-19T05:59:54;97245.13;;;25.84;53.97
15932;BME280;8065;49.520;11.284;2023-06-19T06:02:21;97235.00;;;25.85;53.68
15932;BME280;8065;49.520;11.284;2023-06-19T06:04:47;97243.16;;;25.85;53.61
15932;BME280;8065;49.520;11.284;2023-06-19T06:07:13;97238.38;;;26.05;53.91
15932;BME280;8065;49.520;11.284;2023-06-19T06:09:40;97242.72;;;26.19;53.45
15932;BME280;8065;49.520;11.284;2023-06-19T06:12:07;97256.50;;;26.28;53.20
15932;BME280;8065;49.520;11.284;2023-06-19T06:14:35;97259.00;;;26.38;53.66
15932;BME280;8065;49.520;11.284;2023-06-19T06:17:01;97258.97;;;26.55;53.96
15932;BME280;8065;49.520;11.284;2023-06-19T06:19:30;97255.47;;;26.70;53.82
15932;BME280;8065;49.520;11.284;2023-06-19T06:21:56;97268.28;;;26.86;53.62
15932;BME280;8065;49.520;11.284;2023-06-19T06:24:23;97263.97;;;27.01;52.50
15932;BME280;8065;49.520;11.284;2023-06-19T06:26:49;97265.13;;;27.17;52.40
15932;BME280;8065;49.520;11.284;2023-06-19T06:29:16;97267.44;;;27.31;52.48
15932;BME280;8065;49.520;11.284;2023-06-19T06:31:46;97262.00;;;27.43;52.23
15932;BME280;8065;49.520;11.284;2023-06-19T06:34:13;97274.34;;;27.48;52.57
15932;BME280;8065;49.520;11.284;2023-06-19T06:36:39;97270.03;;;27.63;52.18
15932;BME280;8065;49.520;11.284;2023-06-19T06:39:06;97265.53;;;27.82;52.16
15932;BME280;8065;49.520;11.284;2023-06-19T06:41:32;97272.84;;;27.98;51.93
15932;BME280;8065;49.520;11.284;2023-06-19T06:44:00;97275.69;;;28.07;52.45
15932;BME280;8065;49.520;11.284;2023-06-19T06:46:27;97285.63;;;28.14;52.30
15932;BME280;8065;49.520;11.284;2023-06-19T06:48:54;97287.03;;;28.18;52.34
15932;BME280;8065;49.520;11.284;2023-06-19T06:51:21;97289.34;;;28.20;51.74
15932;BME280;8065;49.520;11.284;2023-06-19T06:53:48;97292.63;;;28.27;52.30
15932;BME280;8065;49.520;11.284;2023-06-19T06:56:14;97302.25;;;28.19;52.28
15932;BME280;8065;49.520;11.284;2023-06-19T06:58:41;97301.91;;;28.17;52.45
15932;BME280;8065;49.520;11.284;2023-06-19T07:01:07;97295.47;;;28.11;52.41
15932;BME280;8065;49.520;11.284;2023-06-19T07:03:34;97295.47;;;28.11;52.62
15932;BME280;8065;49.520;11.284;2023-06-19T07:06:02;97293.84;;;28.01;53.10
15932;BME280;8065;49.520;11.284;2023-06-19T07:08:28;97300.81;;;28.02;53.18
15932;BME280;8065;49.520;11.284;2023-06-19T07:10:54;97299.50;;;27.94;53.16
15932;BME280;8065;49.520;11.284;2023-06-19T07:13:21;97307.03;;;27.77;53.31
15932;BME280;8065;49.520;11.284;2023-06-19T07:15:47;97307.81;;;27.78;53.09
15932;BME280;8065;49.520;11.284;2023-06-19T07:18:14;97310.78;;;27.83;53.38
15932;BME280;8065;49.520;11.284;2023-06-19T07:20:41;97313.06;;;27.85;53.88
15932;BME280;8065;49.520;11.284;2023-06-19T07:23:09;97303.66;;;27.86;53.87
15932;BME280;8065;49.520;11.284;2023-06-19T07:25:35;97305.31;;;27.96;53.89
15932;BME280;8065;49.520;11.284;2023-06-19T07:28:02;97311.53;;;28.09;53.87
15932;BME280;8065;49.520;11.284;2023-06-19T07:30:30;97306.94;;;28.06;53.91
15932;BME280;8065;49.520;11.284;2023-06-19T07:32:56;97309.03;;;28.02;53.66
15932;BME280;8065;49.520;11.284;2023-06-19T07:35:23;97311.22;;;28.07;53.97
15932;BME280;8065;49.520;11.284;2023-06-19T07:37:49;97313.72;;;28.01;53.87
15932;BME280;8065;49.520;11.284;2023-06-19T07:40:17;97310.00;;;28.08;53.79
15932;BME280;8065;49.520;11.284;2023-06-19T07:42:44;97315.25;;;28.15;54.07
15932;BME280;8065;49.520;11.284;2023-06-19T07:45:11;97316.22;;;28.21;53.53
15932;BME280;8065;49.520;11.284;2023-06-19T07:47:38;97315.06;;;28.22;53.67
15932;BME280;8065;49.520;11.284;2023-06-19T07:50:05;97313.31;;;28.28;54.26
15932;BME280;8065;49.520;11.284;2023-06-19T07:52:32;97308.81;;;28.34;54.25
15932;BME280;8065;49.520;11.284;2023-06-19T07:54:59;97311.22;;;28.32;54.54
15932;BME280;8065;49.520;11.284;2023-06-19T07:57:27;97316.78;;;28.42;54.19
15932;BME280;8065;49.520;11.284;2023-06-19T07:59:54;97317.44;;;28.46;53.92
15932;BME280;8065;49.520;11.284;2023-06-19T08:02:21;97317.97;;;28.53;53.72
15932;BME280;8065;49.520;11.284;2023-06-19T08:04:47;97323.31;;;28.57;53.76
15932;BME280;8065;49.520;11.284;2023-06-19T08:07:13;97316.06;;;28.63;53.51
15932;BME280;8065;49.520;11.284;2023-06-19T08:09:40;97319.13;;;28.65;53.68
15932;BME280;8065;49.520;11.284;2023-06-19T08:12:07;97320.53;;;28.82;54.23
15932;BME280;8065;49.520;11.284;2023-06-19T08:14:35;97315.44;;;28.93;54.22
15932;BME280;8065;49.520;11.284;2023-06-19T08:17:03;97317.63;;;28.98;53.47
15932;BME280;8065;49.520;11.284;2023-06-19T08:19:30;97328.88;;;29.00;53.33
15932;BME280;8065;49.520;11.284;2023-06-19T08:21:56;97329.78;;;28.97;54.12
15932;BME280;8065;49.520;11.284;2023-06-19T08:24:23;97335.88;;;29.01;54.15
15932;BME280;8065;49.520;11.284;2023-06-19T08:26:50;97337.66;;;28.95;53.67
15932;BME280;8065;49.520;11.284;2023-06-19T08:29:17;97341.28;;;28.92;54.15
15932;BME280;8065;49.520;11.284;2023-06-19T08:31:45;97343.38;;;28.88;54.63
15932;BME280;8065;49.520;11.284;2023-06-19T08:34:11;97340.00;;;28.84;54.63
15932;BME280;8065;49.520;11.284;2023-06-19T08:36:38;97349.72;;;28.85;54.48
15932;BME280;8065;49.520;11.284;2023-06-19T08:39:04;97347.31;;;28.87;54.73
15932;BME280;8065;49.520;11.284;2023-06-19T08:41:33;97351.53;;;29.01;54.67
15932;BME280;8065;49.520;11.284;2023-06-19T08:44:00;97351.75;;;29.07;54.05
15932;BME280;8065;49.520;11.284;2023-06-19T08:46:28;97352.56;;;29.16;54.06
15932;BME280;8065;49.520;11.284;2023-06-19T08:48:56;97354.13;;;29.17;53.99
15932;BME280;8065;49.520;11.284;2023-06-19T08:51:22;97351.69;;;29.19;54.00
15932;BME280;8065;49.520;11.284;2023-06-19T08:53:55;97346.47;;;29.12;53.89
15932;BME280;8065;49.520;11.284;2023-06-19T08:56:22;97350.28;;;29.15;53.54
15932;BME280;8065;49.520;11.284;2023-06-19T08:58:48;97350.72;;;29.13;53.79
15932;BME280;8065;49.520;11.284;2023-06-19T09:01:17;97345.44;;;29.19;53.44
15932;BME280;8065;49.520;11.284;2023-06-19T09:03:43;97355.50;;;29.22;53.85
15932;BME280;8065;49.520;11.284;2023-06-19T09:06:14;97357.44;;;29.34;53.78
15932;BME280;8065;49.520;11.284;2023-06-19T09:08:41;97353.13;;;29.46;53.23
15932;BME280;8065;49.520;11.284;2023-06-19T09:11:07;97352.09;;;29.52;53.83
15932;BME280;8065;49.520;11.284;2023-06-19T09:13:33;97345.72;;;29.55;53.25
15932;BME280;8065;49.520;11.284;2023-06-19T09:16:01;97343.03;;;29.64;53.20
15932;BME280;8065;49.520;11.284;2023-06-19T09:18:29;97341.59;;;29.82;52.76
15932;BME280;8065;49.520;11.284;2023-06-19T09:20:55;97341.19;;;29.92;52.56
15932;BME280;8065;49.520;11.284;2023-06-19T09:23:24;97346.94;;;30.07;52.44
15932;BME280;8065;49.520;11.284;2023-06-19T09:25:51;97336.03;;;30.25;51.83
15932;BME280;8065;49.520;11.284;2023-06-19T09:28:19;97330.41;;;30.47;51.45
15932;BME280;8065;49.520;11.284;2023-06-19T09:30:53;97334.31;;;30.68;50.73
15932;BME280;8065;49.520;11.284;2023-06-19T09:33:20;97333.41;;;30.80;50.13
15932;BME280;8065;49.520;11.284;2023-06-19T09:35:47;97335.84;;;30.87;50.99
15932;BME280;8065;49.520;11.284;2023-06-19T09:38:16;97341.34;;;30.96;50.35
15932;BME280;8065;49.520;11.284;2023-06-19T09:40:45;97336.63;;;30.88;50.93
15932;BME280;8065;49.520;11.284;2023-06-19T09:43:13;97333.41;;;30.71;50.69
15932;BME280;8065;49.520;11.284;2023-06-19T09:45:41;97336.75;;;30.66;51.01
15932;BME280;8065;49.520;11.284;2023-06-19T09:48:11;97334.22;;;30.31;51.64
15932;BME280;8065;49.520;11.284;2023-06-19T09:50:42;97336.13;;;30.62;51.44
15932;BME280;8065;49.520;11.284;2023-06-19T09:53:09;97346.50;;;30.76;50.79
15932;BME280;8065;49.520;11.284;2023-06-19T09:55:37;97334.03;;;30.93;51.46
15932;BME280;8065;49.520;11.284;2023-06-19T09:58:05;97329.44;;;31.09;50.89
15932;BME280;8065;49.520;11.284;2023-06-19T10:00:33;97329.13;;;30.88;51.05
15932;BME280;8065;49.520;11.284;2023-06-19T10:03:00;97323.81;;;31.12;50.51
15932;BME280;8065;49.520;11.284;2023-06-19T10:05:28;97326.13;;;31.14;51.65
15932;BME280;8065;49.520;11.284;2023-06-19T10:07:55;97319.97;;;31.37;51.64
15932;BME280;8065;49.520;11.284;2023-06-19T10:10:26;97316.25;;;31.58;50.72
15932;BME280;8065;49.520;11.284;2023-06-19T10:12:54;97310.41;;;31.84;50.28
15932;BME280;8065;49.520;11.284;2023-06-19T10:15:24;97313.56;;;32.01;51.52
15932;BME280;8065;49.520;11.284;2023-06-19T10:17:54;97306.81;;;32.35;50.90
15932;BME280;8065;49.520;11.284;2023-06-19T10:20:27;97310.72;;;32.76;50.21
15932;BME280;8065;49.520;11.284;2023-06-19T10:23:01;97309.63;;;33.12;49.44
15932;BME280;8065;49.520;11.284;2023-06-19T10:25:29;97309.25;;;33.19;47.97
15932;BME280;8065;49.520;11.284;2023-06-19T10:27:57;97308.97;;;33.17;47.02
15932;BME280;8065;49.520;11.284;2023-06-19T10:30:25;97312.28;;;32.92;47.94
15932;BME280;8065;49.520;11.284;2023-06-19T10:32:52;97301.97;;;32.30;49.40
15932;BME280;8065;49.520;11.284;2023-06-19T10:35:19;97300.28;;;32.56;49.89
15932;BME280;8065;49.520;11.284;2023-06-19T10:37:47;97299.69;;;32.52;48.73
15932;BME280;8065;49.520;11.284;2023-06-19T10:40:15;97300.38;;;32.62;48.81
15932;BME280;8065;49.520;11.284;2023-06-19T10:42:42;97293.88;;;32.74;48.50
15932;BME280;8065;49.520;11.284;2023-06-19T10:45:10;97294.97;;;32.76;48.24
15932;BME280;8065;49.520;11.284;2023-06-19T10:47:40;97301.72;;;32.66;48.05
15932;BME280;8065;49.520;11.284;2023-06-19T10:50:10;97300.31;;;32.47;48.15
15932;BME280;8065;49.520;11.284;2023-06-19T10:52:39;97302.91;;;32.50;48.22
15932;BME280;8065;49.520;11.284;2023-06-19T10:55:06;97297.88;;;32.49;48.26
15932;BME280;8065;49.520;11.284;2023-06-19T10:57:33;97299.56;;;32.46;48.41
15932;BME280;8065;49.520;11.284;2023-06-19T10:59:59;97290.38;;;32.25;49.30
15932;BME280;8065;49.520;11.284;2023-06-19T11:02:26;97289.19;;;32.65;48.64
15932;BME280;8065;49.520;11.284;2023-06-19T11:04:54;97290.34;;;32.73;47.63
15932;BME280;8065;49.520;11.284;2023-06-19T11:07:22;97294.00;;;32.79;47.41
15932;BME280;8065;49.520;11.284;2023-06-19T11:09:48;97288.84;;;32.72;47.10
15932;BME280;8065;49.520;11.284;2023-06-19T11:12:19;97283.00;;;32.79;46.91
15932;BME280;8065;49.520;11.284;2023-06-19T11:14:45;97276.75;;;32.94;47.05
15932;BME280;8065;49.520;11.284;2023-06-19T11:17:12;97280.66;;;33.02;47.05
15932;BME280;8065;49.520;11.284;2023-06-19T11:19:38;97276.00;;;32.21;47.69
15932;BME280;8065;49.520;11.284;2023-06-19T11:22:09;97280.41;;;32.52;48.29
15932;BME280;8065;49.520;11.284;2023-06-19T11:24:36;97278.72;;;32.54;46.73
15932;BME280;8065;49.520;11.284;2023-06-19T11:27:03;97280.75;;;32.93;47.16
15932;BME280;8065;49.520;11.284;2023-06-19T11:29:31;97282.66;;;33.16;46.88
15932;BME280;8065;49.520;11.284;2023-06-19T11:32:05;97280.41;;;33.29;46.15
15932;BME280;8065;49.520;11.284;2023-06-19T11:34:33;97288.03;;;33.34;44.94
15932;BME280;8065;49.520;11.284;2023-06-19T11:37:02;97271.19;;;33.47;45.24
15932;BME280;8065;49.520;11.284;2023-06-19T11:39:32;97282.13;;;33.71;45.01
15932;BME280;8065;49.520;11.284;2023-06-19T11:41:59;97279.41;;;33.91;44.53
15932;BME280;8065;49.520;11.284;2023-06-19T11:44:26;97277.09;;;34.04;44.24
15932;BME280;8065;49.520;11.284;2023-06-19T11:46:56;97274.69;;;34.12;44.35
15932;BME280;8065;49.520;11.284;2023-06-19T11:49:23;97272.09;;;34.23;43.87
15932;BME280;8065;49.520;11.284;2023-06-19T11:51:50;97278.94;;;34.28;43.84
15932;BME280;8065;49.520;11.284;2023-06-19T11:54:16;97263.78;;;34.38;43.91
15932;BME280;8065;49.520;11.284;2023-06-19T11:56:45;97268.84;;;34.39;43.60
15932;BME280;8065;49.520;11.284;2023-06-19T11:59:12;97260.16;;;34.11;43.50
15932;BME280;8065;49.520;11.284;2023-06-19T12:01:39;97263.19;;;34.13;43.87
15932;BME280;8065;49.520;11.284;2023-06-19T12:04:06;97264.56;;;34.03;43.91
15932;BME280;8065;49.520;11.284;2023-06-19T12:06:33;97258.91;;;34.12;43.59
15932;BME280;8065;49.520;11.284;2023-06-19T12:09:02;97253.09;;;34.10;44.17
15932;BME280;8065;49.520;11.284;2023-06-19T12:11:29;97250.63;;;34.12;43.71
15932;BME280;8065;49.520;11.284;2023-06-19T12:13:57;97248.75;;;34.04;43.96
15932;BME280;8065;49.520;11.284;2023-06-19T12:16:23;97239.06;;;34.29;43.84
15932;BME280;8065;49.520;11.284;2023-06-19T12:18:50;97244.06;;;34.45;43.71
15932;BME280;8065;49.520;11.284;2023-06-19T12:21:16;97230.38;;;34.56;43.50
15932;BME280;8065;49.520;11.284;2023-06-19T12:23:43;97241.28;;;34.65;43.20
15932;BME280;8065;49.520;11.284;2023-06-19T12:26:09;97238.25;;;34.63;43.42
15932;BME280;8065;49.520;11.284;2023-06-19T12:28:36;97229.78;;;34.72;43.17
15932;BME280;8065;49.520;11.284;2023-06-19T12:31:04;97232.81;;;34.74;43.51
15932;BME280;8065;49.520;11.284;2023-06-19T12:33:30;97237.84;;;34.50;43.98
15932;BME280;8065;49.520;11.284;2023-06-19T12:35:58;97231.34;;;33.63;44.52
15932;BME280;8065;49.520;11.284;2023-06-19T12:38:25;97229.50;;;34.44;43.51
15932;BME280;8065;49.520;11.284;2023-06-19T12:40:51;97222.31;;;34.53;42.24
15932;BME280;8065;49.520;11.284;2023-06-19T12:43:18;97224.03;;;34.50;43.05
15932;BME280;8065;49.520;11.284;2023-06-19T12:45:44;97217.69;;;34.64;42.78
15932;BME280;8065;49.520;11.284;2023-06-19T12:48:12;97222.19;;;34.88;43.13
15932;BME280;8065;49.520;11.284;2023-06-19T12:50:39;97220.25;;;34.73;42.92
15932;BME280;8065;49.520;11.284;2023-06-19T12:53:05;97223.81;;;35.00;42.08
15932;BME280;8065;49.520;11.284;2023-06-19T12:55:31;97218.19;;;35.40;42.19
15932;BME280;8065;49.520;11.284;2023-06-19T12:57:58;97220.75;;;35.50;42.17
15932;BME280;8065;49.520;11.284;2023-06-19T13:00:24;97217.16;;;35.38;41.72